Otar, Kazakhstan
Current Conditions -  °F | °C
As of 7:30 AM on Sunday 21 Dec 2014 (Local Time) from UCFM Reporting Station
Clear Clear  
Wind Chill: 24°   Ceiling: Unl
Heat Index: 30°   Visibility: 4mi
Dew Point: 23°   Wind: 7mph
Humidity: 75%   Direction: 110°ESE
Pressure: 30.09"   Gusts: NA
Location:  43.54°N, 75.21°E
Report Text: UCFM 210130Z 11003MPS 6000 NSC M01/M05 Q1019 R08/CLRD70 NOSIG
Loading
Personal Weather Stations






























Interactive Weather Map New forecast layout! Learn more

10-Day Weather Forecast

Advertisements
Track Severe Weather on mobile